createdAt,value
2022-10-29T00:00:01.142Z,16.7
2022-10-29T00:01:05.451Z,16.7
2022-10-29T00:02:01.225Z,16.7
2022-10-29T00:03:00.985Z,16.7
2022-10-29T00:04:00.755Z,16.7
2022-10-29T00:05:00.393Z,16.8
2022-10-29T00:06:07.811Z,16.8
2022-10-29T00:07:01.972Z,16.7
2022-10-29T00:08:01.456Z,16.7
2022-10-29T00:09:01.071Z,16.7
2022-10-29T00:10:00.942Z,16.7
2022-10-29T00:11:11.274Z,16.9
2022-10-29T00:12:01.487Z,17
2022-10-29T00:13:02.009Z,16.9
2022-10-29T00:14:01.103Z,17.1
2022-10-29T00:15:01.111Z,17
2022-10-29T00:16:14.476Z,17.1
2022-10-29T00:17:01.137Z,17.1
2022-10-29T00:18:01.121Z,17.2
2022-10-29T00:19:01.128Z,17.2
2022-10-29T00:20:01.610Z,17.1
2022-10-29T00:21:17.031Z,17.1
2022-10-29T00:22:02.225Z,17.4
2022-10-29T00:23:01.073Z,17.3
2022-10-29T00:24:01.066Z,17.4
2022-10-29T00:25:01.088Z,17.4
2022-10-29T00:26:01.047Z,17.2
2022-10-29T00:27:01.317Z,17.2
2022-10-29T00:28:01.081Z,17.2
2022-10-29T00:29:01.116Z,17.2
2022-10-29T00:30:02.645Z,17.3
2022-10-29T00:31:01.482Z,17.3
2022-10-29T00:32:01.148Z,17.3
2022-10-29T00:33:01.122Z,17.4
2022-10-29T00:34:01.120Z,17.4
2022-10-29T00:35:01.532Z,17.5
2022-10-29T00:36:01.520Z,17.5
2022-10-29T00:37:01.244Z,17.6
2022-10-29T00:38:01.158Z,17.6
2022-10-29T00:39:03.867Z,17.6
2022-10-29T00:40:01.383Z,17.6
2022-10-29T00:41:01.071Z,17.7
2022-10-29T00:42:01.103Z,17.7
2022-10-29T00:43:01.120Z,17.7
2022-10-29T00:44:01.127Z,17.7
2022-10-29T00:45:04.999Z,17.8
2022-10-29T00:46:01.214Z,17.9
2022-10-29T00:47:01.121Z,17.9
2022-10-29T00:48:01.109Z,17.8
2022-10-29T00:49:01.736Z,17.9
2022-10-29T00:50:01.331Z,17.8
2022-10-29T00:51:01.519Z,17.9
2022-10-29T00:52:01.227Z,17.9
2022-10-29T00:53:01.531Z,18
2022-10-29T00:54:01.530Z,18
2022-10-29T00:55:01.091Z,18
2022-10-29T00:56:01.388Z,17.9
2022-10-29T00:57:01.106Z,18
2022-10-29T00:58:01.082Z,17.8
2022-10-29T00:59:01.111Z,17.8
2022-10-29T01:00:01.108Z,17.9
2022-10-29T01:01:01.427Z,18
2022-10-29T01:02:01.652Z,18
2022-10-29T01:03:04.727Z,17.9
2022-10-29T01:04:01.796Z,18
2022-10-29T01:05:01.369Z,17.9
2022-10-29T01:06:01.134Z,17.9
2022-10-29T01:07:01.520Z,18.1
2022-10-29T01:08:01.248Z,17.9
2022-10-29T01:09:01.285Z,17.8
2022-10-29T01:10:01.064Z,18
2022-10-29T01:11:01.072Z,18
2022-10-29T01:12:01.213Z,17.9
2022-10-29T01:13:01.789Z,17.9
2022-10-29T01:14:01.396Z,18
2022-10-29T01:15:02.233Z,17.9
2022-10-29T01:16:01.223Z,17.9
2022-10-29T01:17:01.963Z,17.9
2022-10-29T01:18:01.111Z,17.9
2022-10-29T01:19:01.305Z,18
2022-10-29T01:20:01.068Z,17.9
2022-10-29T01:21:01.785Z,17.9
2022-10-29T01:22:01.072Z,17.9
2022-10-29T01:23:01.097Z,17.9
2022-10-29T01:24:01.081Z,18.1
2022-10-29T01:25:01.259Z,18.1
2022-10-29T01:26:01.473Z,18
2022-10-29T01:27:02.933Z,18.1
2022-10-29T01:28:01.072Z,18
2022-10-29T01:29:01.094Z,18
2022-10-29T01:30:01.044Z,18.1
2022-10-29T01:31:01.111Z,18.2
2022-10-29T01:32:01.326Z,18
2022-10-29T01:33:01.364Z,18.1
2022-10-29T01:34:01.489Z,18.3
2022-10-29T01:35:02.115Z,18.4
2022-10-29T01:36:01.249Z,18.3
2022-10-29T01:37:01.119Z,18.4
2022-10-29T01:38:01.155Z,18.4
2022-10-29T01:39:01.155Z,18.4
2022-10-29T01:40:01.159Z,18.6
2022-10-29T01:41:01.056Z,18.6
2022-10-29T01:42:00.826Z,18.6
2022-10-29T01:43:00.615Z,18.6
2022-10-29T01:44:00.272Z,18.7
2022-10-29T01:44:59.838Z,18.7
2022-10-29T01:46:01.781Z,18.7
2022-10-29T01:47:03.717Z,18.8
2022-10-29T01:48:01.827Z,18.7
2022-10-29T01:49:02.106Z,18.8
2022-10-29T01:50:02.182Z,18.8
2022-10-29T01:51:01.115Z,18.7
2022-10-29T01:52:08.925Z,18.9
2022-10-29T01:53:01.387Z,18.9
2022-10-29T01:54:01.887Z,18.8
2022-10-29T01:55:02.679Z,18.9
2022-10-29T01:56:01.141Z,18.8
2022-10-29T01:57:11.619Z,18.9
2022-10-29T01:58:01.752Z,19
2022-10-29T01:59:02.164Z,19
2022-10-29T02:00:01.817Z,19
2022-10-29T02:01:01.185Z,19
2022-10-29T02:02:15.282Z,19.1
2022-10-29T02:03:02.426Z,19.1
2022-10-29T02:04:01.096Z,19.1
2022-10-29T02:05:01.117Z,19.1
2022-10-29T02:06:01.111Z,19.1
2022-10-29T02:07:01.134Z,19.1
2022-10-29T02:08:01.219Z,19
2022-10-29T02:09:01.127Z,19.2
2022-10-29T02:10:01.550Z,19.3
2022-10-29T02:11:01.529Z,19.2
2022-10-29T02:12:01.295Z,19.4
2022-10-29T02:13:02.104Z,19.3
2022-10-29T02:14:00.618Z,19.4
2022-10-29T02:15:00.314Z,19.4
2022-10-29T02:16:00.186Z,19.5
2022-10-29T02:16:59.830Z,19.4
2022-10-29T02:18:01.506Z,19.5
2022-10-29T02:19:00.693Z,19.4
2022-10-29T02:20:00.398Z,19.5
2022-10-29T02:21:00.066Z,19.4
2022-10-29T02:21:59.774Z,19.5
2022-10-29T02:23:01.406Z,19.5
2022-10-29T02:24:02.458Z,19.5
2022-10-29T02:25:02.695Z,19.6
2022-10-29T02:26:01.132Z,19.5
2022-10-29T02:27:01.152Z,19.6
2022-10-29T02:28:01.044Z,19.6
2022-10-29T02:29:01.063Z,19.7
2022-10-29T02:30:01.459Z,19.8
2022-10-29T02:31:01.424Z,19.8
2022-10-29T02:32:01.517Z,19.8
2022-10-29T02:33:01.082Z,19.7
2022-10-29T02:34:01.048Z,19.8
2022-10-29T02:35:01.098Z,19.9
2022-10-29T02:36:01.098Z,19.9
2022-10-29T02:37:01.111Z,20
2022-10-29T02:38:01.492Z,20
2022-10-29T02:39:01.228Z,20
2022-10-29T02:40:01.146Z,20
2022-10-29T02:41:01.151Z,20.1
2022-10-29T02:42:01.134Z,20.2
2022-10-29T02:43:01.154Z,20.3
2022-10-29T02:44:01.565Z,20.4
2022-10-29T02:45:01.067Z,20.3
2022-10-29T02:46:01.101Z,20.4
2022-10-29T02:47:01.071Z,20.3
2022-10-29T02:48:01.076Z,20.4
2022-10-29T02:49:01.079Z,20.3
2022-10-29T02:50:01.484Z,20.5
2022-10-29T02:51:01.475Z,20.5
2022-10-29T02:52:02.107Z,20.8
2022-10-29T02:53:01.113Z,20.7
2022-10-29T02:54:01.324Z,20.8
2022-10-29T02:55:01.143Z,21.1
2022-10-29T02:56:01.166Z,21.3
2022-10-29T02:57:01.264Z,21.1
2022-10-29T02:58:01.226Z,21.2
2022-10-29T02:59:01.265Z,21.3
2022-10-29T03:00:01.166Z,21.3
2022-10-29T03:01:01.161Z,21.4
2022-10-29T03:02:01.336Z,21.5
2022-10-29T03:03:02.668Z,21.5
2022-10-29T03:04:01.047Z,21.5
2022-10-29T03:05:01.077Z,21.5
2022-10-29T03:06:01.083Z,21.5
2022-10-29T03:07:01.047Z,21.5
2022-10-29T03:08:01.059Z,21.5
2022-10-29T03:09:00.772Z,21.5
2022-10-29T03:10:00.402Z,21.4
2022-10-29T03:11:00.078Z,21.4
2022-10-29T03:11:59.759Z,21.5
2022-10-29T03:13:04.445Z,21.4
2022-10-29T03:14:01.533Z,21.5
2022-10-29T03:15:02.604Z,21.8
2022-10-29T03:16:01.261Z,21.7
2022-10-29T03:17:01.955Z,21.6
2022-10-29T03:18:07.858Z,21.7
2022-10-29T03:19:01.072Z,22.1
2022-10-29T03:20:01.077Z,21.9
2022-10-29T03:21:01.086Z,22
2022-10-29T03:22:01.105Z,22
2022-10-29T03:23:05.115Z,22.1
2022-10-29T03:24:01.251Z,22.1
2022-10-29T03:25:02.114Z,22.2
2022-10-29T03:26:02.120Z,22.3
2022-10-29T03:27:01.231Z,22.3
2022-10-29T03:28:12.817Z,22.5
2022-10-29T03:29:01.926Z,22.6
2022-10-29T03:30:00.716Z,22.7
2022-10-29T03:31:00.419Z,22.8
2022-10-29T03:32:00.221Z,22.8
2022-10-29T03:33:15.054Z,22.8
2022-10-29T03:34:01.942Z,22.9
2022-10-29T03:35:01.114Z,22.9
2022-10-29T03:36:01.311Z,23
2022-10-29T03:37:01.215Z,23.1
2022-10-29T03:38:01.172Z,23.3
2022-10-29T03:39:01.416Z,23.3
2022-10-29T03:40:01.094Z,23.3
2022-10-29T03:41:01.129Z,23.2
2022-10-29T03:42:01.119Z,23.1
2022-10-29T03:43:01.113Z,23.3
2022-10-29T03:44:00.850Z,23.2
2022-10-29T03:45:00.510Z,23.3
2022-10-29T03:46:00.268Z,23.5
2022-10-29T03:46:59.883Z,23.6
2022-10-29T03:47:59.517Z,23.8
2022-10-29T03:49:01.102Z,23.8
2022-10-29T03:50:01.496Z,24
2022-10-29T03:51:02.199Z,24
2022-10-29T03:52:01.513Z,24
2022-10-29T03:53:02.114Z,23.8
2022-10-29T03:54:01.504Z,24
2022-10-29T03:55:01.099Z,24
2022-10-29T03:56:01.800Z,23.9
2022-10-29T03:57:01.211Z,23.9
2022-10-29T03:58:01.115Z,23.8
2022-10-29T03:59:01.187Z,23.9
2022-10-29T04:00:01.549Z,23.8
2022-10-29T04:01:02.168Z,23.9
2022-10-29T04:02:02.177Z,24.1
2022-10-29T04:03:01.682Z,24.1
2022-10-29T04:04:01.157Z,24.2
2022-10-29T04:05:01.800Z,24.3
2022-10-29T04:06:02.474Z,24.3
2022-10-29T04:07:01.059Z,24.6
2022-10-29T04:08:01.076Z,24.7
2022-10-29T04:09:01.458Z,24.6
2022-10-29T04:10:02.414Z,24.7
2022-10-29T04:11:01.777Z,24.9
2022-10-29T04:12:01.501Z,25
2022-10-29T04:13:01.144Z,25.1
2022-10-29T04:14:01.108Z,25.2
2022-10-29T04:15:01.084Z,25.5
2022-10-29T04:16:01.139Z,25.9
2022-10-29T04:17:01.326Z,25.7
2022-10-29T04:18:01.431Z,25.7
2022-10-29T04:19:00.962Z,26
2022-10-29T04:20:01.047Z,26
2022-10-29T04:24:35.778Z,26
2022-10-29T04:28:32.859Z,26.7
2022-10-29T04:29:03.017Z,26.5
2022-10-29T04:30:01.178Z,26.8
2022-10-29T04:31:01.141Z,26.7
2022-10-29T04:32:01.128Z,26.9
2022-10-29T04:33:01.135Z,27.1
2022-10-29T04:34:01.878Z,27
2022-10-29T04:35:00.688Z,27.1
2022-10-29T04:36:00.374Z,27.1
2022-10-29T04:37:00.032Z,27.1
2022-10-29T04:37:59.728Z,27
2022-10-29T04:39:01.347Z,27.3
2022-10-29T04:40:00.999Z,27.4
2022-10-29T04:41:01.453Z,27.3
2022-10-29T04:42:02.005Z,27.3
2022-10-29T04:43:01.126Z,27.7
2022-10-29T04:44:01.442Z,27.7
2022-10-29T04:45:01.779Z,27.8
2022-10-29T04:46:02.036Z,28.3
2022-10-29T04:47:02.027Z,28.3
2022-10-29T04:48:01.147Z,28.3
2022-10-29T04:49:01.233Z,28.1
2022-10-29T04:50:00.549Z,28.3
2022-10-29T04:51:00.557Z,28.2
2022-10-29T04:52:00.565Z,28.8
2022-10-29T04:53:00.254Z,28.8
2022-10-29T04:54:02.391Z,28.7
2022-10-29T04:55:01.066Z,28.8
2022-10-29T04:56:01.073Z,28.7
2022-10-29T04:57:01.108Z,28.8
2022-10-29T04:58:01.133Z,28.9
2022-10-29T04:59:04.989Z,28.8
2022-10-29T05:00:01.505Z,28.9
2022-10-29T05:01:01.423Z,29.1
2022-10-29T05:02:01.036Z,29.3
2022-10-29T05:03:01.142Z,29.4
2022-10-29T05:04:07.866Z,29.6
2022-10-29T05:05:01.128Z,29.7
2022-10-29T05:06:01.135Z,29.8
2022-10-29T05:07:01.150Z,29.9
2022-10-29T05:08:01.065Z,30
2022-10-29T05:09:09.291Z,30.1
2022-10-29T05:10:00.961Z,30.3
2022-10-29T05:11:01.069Z,30.2
2022-10-29T05:12:01.077Z,30.2
2022-10-29T05:13:01.235Z,30.3
2022-10-29T05:14:11.563Z,30.3
2022-10-29T05:15:01.214Z,30.6
2022-10-29T05:16:01.800Z,30.6
2022-10-29T05:17:01.194Z,30.6
2022-10-29T05:18:01.129Z,30.8
2022-10-29T05:19:14.805Z,30.8
2022-10-29T05:20:01.055Z,30.8
2022-10-29T05:21:01.138Z,30.7
2022-10-29T05:22:01.287Z,30.7
2022-10-29T05:23:01.541Z,30.7
2022-10-29T05:24:17.362Z,30.7
2022-10-29T05:25:01.234Z,31
2022-10-29T05:26:01.072Z,31
2022-10-29T05:27:01.076Z,31.1
2022-10-29T05:28:01.087Z,31.4
2022-10-29T05:29:01.105Z,31.7
2022-10-29T05:30:01.460Z,31.9
2022-10-29T05:31:01.669Z,32
2022-10-29T05:32:01.728Z,32
2022-10-29T05:33:01.107Z,32
2022-10-29T05:34:01.068Z,32.1
2022-10-29T05:35:01.061Z,32.3
2022-10-29T05:36:01.051Z,32.2
2022-10-29T05:37:01.135Z,32.3
2022-10-29T05:38:01.191Z,32.3
2022-10-29T05:39:01.410Z,32.5
2022-10-29T05:40:01.085Z,32.7
2022-10-29T05:41:01.741Z,32.6
2022-10-29T05:42:01.049Z,32.5
2022-10-29T05:43:01.471Z,32.4
2022-10-29T05:44:01.086Z,32.4
2022-10-29T05:45:01.078Z,32.5
2022-10-29T05:46:01.064Z,32.5
2022-10-29T05:47:01.107Z,32.5
2022-10-29T05:48:01.156Z,32.6
2022-10-29T05:49:01.055Z,32.8
2022-10-29T05:50:01.558Z,32.6
2022-10-29T05:51:02.118Z,32.6
2022-10-29T05:52:01.448Z,32.4
2022-10-29T05:53:02.163Z,32.8
2022-10-29T05:54:01.463Z,32.8
2022-10-29T05:55:01.172Z,33
2022-10-29T05:56:01.088Z,32.9
2022-10-29T05:57:01.061Z,33.2
2022-10-29T05:58:01.090Z,33.5
2022-10-29T05:59:01.074Z,33.5
2022-10-29T06:00:00.980Z,33.5
2022-10-29T06:01:01.606Z,33.6
2022-10-29T06:02:01.798Z,33.6
2022-10-29T06:03:01.338Z,33.6
2022-10-29T06:04:01.106Z,33.6
2022-10-29T06:05:01.200Z,33.6
2022-10-29T06:06:01.285Z,33.6
2022-10-29T06:07:01.147Z,33.6
2022-10-29T06:08:01.706Z,33.6
2022-10-29T06:09:01.462Z,33.7
2022-10-29T06:10:01.210Z,33.9
2022-10-29T06:11:01.327Z,34
2022-10-29T06:12:01.058Z,34.1
2022-10-29T06:13:01.072Z,34.3
2022-10-29T06:14:01.735Z,34.1
2022-10-29T06:15:00.698Z,34.4
2022-10-29T06:16:00.688Z,34.3
2022-10-29T06:17:00.363Z,34.3
2022-10-29T06:17:59.931Z,34.2
2022-10-29T06:18:59.544Z,34.3
2022-10-29T06:20:01.837Z,34.3
2022-10-29T06:21:01.186Z,34.3
2022-10-29T06:22:01.570Z,34.2
2022-10-29T06:23:01.956Z,34.2
2022-10-29T06:24:01.725Z,34.3
2022-10-29T06:25:01.515Z,34.2
2022-10-29T06:26:03.745Z,34.3
2022-10-29T06:27:01.552Z,34.2
2022-10-29T06:28:01.552Z,34.1
2022-10-29T06:29:01.410Z,34.3
2022-10-29T06:30:02.683Z,34.2
2022-10-29T06:31:01.628Z,34.3
2022-10-29T06:32:01.341Z,34.4
2022-10-29T06:33:01.518Z,34.2
2022-10-29T06:34:01.457Z,34.4
2022-10-29T06:35:02.290Z,34.3
2022-10-29T06:36:01.114Z,34.4
2022-10-29T06:37:01.116Z,34.4
2022-10-29T06:38:01.832Z,34.3
2022-10-29T06:39:01.235Z,34.4
2022-10-29T06:40:01.753Z,34.3
2022-10-29T06:41:01.918Z,34.4
2022-10-29T06:42:01.546Z,34.3
2022-10-29T06:43:00.635Z,34.2
2022-10-29T06:44:00.245Z,34.1
2022-10-29T06:45:05.432Z,34.2
2022-10-29T06:46:01.063Z,34.2
2022-10-29T06:47:01.183Z,34.1
2022-10-29T06:48:01.106Z,34
2022-10-29T06:49:01.094Z,34.1
2022-10-29T06:50:08.900Z,34
2022-10-29T06:51:01.099Z,34
2022-10-29T06:52:02.228Z,33.9
2022-10-29T06:53:01.559Z,33.9
2022-10-29T06:54:01.272Z,33.8
2022-10-29T06:55:12.851Z,33.6
2022-10-29T06:56:02.049Z,33.9
2022-10-29T06:57:01.116Z,33.9
2022-10-29T06:58:00.832Z,33.6
2022-10-29T06:59:00.537Z,33.9
2022-10-29T07:00:15.143Z,33.4
2022-10-29T07:01:02.450Z,33.2
2022-10-29T07:02:01.470Z,33
2022-10-29T07:03:01.877Z,32.9
2022-10-29T07:04:01.210Z,32.9
2022-10-29T07:05:01.086Z,32.8
2022-10-29T07:06:01.060Z,32.6
2022-10-29T07:07:01.071Z,32.4
2022-10-29T07:08:01.207Z,32.4
2022-10-29T07:09:00.810Z,32.2
2022-10-29T07:10:00.401Z,32
2022-10-29T07:11:00.014Z,32
2022-10-29T07:11:59.584Z,31.9
2022-10-29T07:13:02.271Z,32
2022-10-29T07:14:02.212Z,32
2022-10-29T07:15:02.205Z,31.7
2022-10-29T07:16:01.251Z,31.9
2022-10-29T07:17:01.077Z,31.8
2022-10-29T07:18:01.077Z,31.8
2022-10-29T07:19:01.220Z,31.7
2022-10-29T07:20:01.090Z,31.6
2022-10-29T07:21:01.587Z,31.4
2022-10-29T07:22:02.123Z,31.3
2022-10-29T07:23:02.315Z,31.1
2022-10-29T07:24:01.119Z,31.2
2022-10-29T07:25:01.480Z,31.1
2022-10-29T07:26:01.152Z,31.1
2022-10-29T07:27:01.150Z,31
2022-10-29T07:28:01.483Z,31.1
2022-10-29T07:29:01.166Z,31
2022-10-29T07:30:01.231Z,30.8
2022-10-29T07:31:01.162Z,30.7
2022-10-29T07:32:01.062Z,30.7
2022-10-29T07:33:01.065Z,30.6
2022-10-29T07:34:01.084Z,30.6
2022-10-29T07:35:01.096Z,30.7
2022-10-29T07:36:01.085Z,30.6
2022-10-29T07:37:01.090Z,30.4
2022-10-29T07:38:05.292Z,30.5
2022-10-29T07:39:01.404Z,30.7
2022-10-29T07:40:01.405Z,30.6
2022-10-29T07:41:01.118Z,30.3
2022-10-29T07:42:01.152Z,30.5
2022-10-29T07:43:00.836Z,30.1
2022-10-29T07:44:00.721Z,30.2
2022-10-29T07:45:00.381Z,30.1
2022-10-29T07:46:00.293Z,30.3
2022-10-29T07:46:59.924Z,30.8
2022-10-29T07:48:02.725Z,30.3
2022-10-29T07:49:01.346Z,30.1
2022-10-29T07:50:02.155Z,29.8
2022-10-29T07:51:01.996Z,29.7
2022-10-29T07:52:01.239Z,29.6
2022-10-29T07:53:01.490Z,29.5
2022-10-29T07:54:01.097Z,29.6
2022-10-29T07:55:01.110Z,29.5
2022-10-29T07:56:01.112Z,29.3
2022-10-29T07:57:01.335Z,29.2
2022-10-29T07:58:01.161Z,29.2
2022-10-29T07:59:01.150Z,28.8
2022-10-29T08:00:01.154Z,29
2022-10-29T08:01:01.625Z,28.9
2022-10-29T08:02:01.604Z,28.7
2022-10-29T08:03:00.793Z,28.8
2022-10-29T08:04:00.437Z,28.7
2022-10-29T08:05:00.034Z,28.8
2022-10-29T08:05:59.740Z,28.8
2022-10-29T08:07:01.397Z,28.7
2022-10-29T08:08:02.110Z,28.3
2022-10-29T08:09:02.625Z,27.9
2022-10-29T08:10:01.440Z,28.1
2022-10-29T08:11:01.135Z,27.9
2022-10-29T08:12:01.112Z,27.6
2022-10-29T08:13:01.716Z,27.7
2022-10-29T08:14:01.206Z,27.9
2022-10-29T08:15:01.136Z,27.6
2022-10-29T08:16:01.052Z,27.5
2022-10-29T08:17:01.247Z,27.3
2022-10-29T08:18:01.289Z,27.3
2022-10-29T08:19:01.296Z,27.2
2022-10-29T08:20:01.184Z,27.1
2022-10-29T08:21:02.855Z,27.3
2022-10-29T08:22:01.790Z,27.1
2022-10-29T08:23:01.872Z,27.3
2022-10-29T08:24:01.905Z,26.9
2022-10-29T08:25:01.101Z,26.8
2022-10-29T08:26:05.445Z,26.6
2022-10-29T08:27:01.319Z,26.5
2022-10-29T08:28:02.187Z,26.5
2022-10-29T08:29:02.175Z,26.6
2022-10-29T08:30:01.154Z,26.6
2022-10-29T08:31:08.596Z,26.6
2022-10-29T08:32:01.402Z,26.6
2022-10-29T08:33:01.816Z,26.6
2022-10-29T08:34:01.241Z,26.6
2022-10-29T08:35:01.270Z,26.3
2022-10-29T08:36:11.806Z,26.3
2022-10-29T08:37:08.176Z,26.3
2022-10-29T08:38:01.092Z,26.3
2022-10-29T08:39:01.111Z,26.4
2022-10-29T08:40:01.098Z,26.3
2022-10-29T08:41:14.319Z,26.1
2022-10-29T08:42:01.165Z,26.3
2022-10-29T08:43:00.898Z,26.2
2022-10-29T08:45:01.121Z,26.8
2022-10-29T08:46:16.882Z,26.8
2022-10-29T08:47:03.812Z,26.9
2022-10-29T08:48:01.167Z,27.1
2022-10-29T08:49:01.193Z,27.1
2022-10-29T08:50:01.149Z,27.1
2022-10-29T08:51:01.160Z,27.2
2022-10-29T08:52:02.002Z,27.1
2022-10-29T08:55:01.568Z,27.1
2022-10-29T08:56:01.300Z,27
2022-10-29T08:57:01.204Z,27
2022-10-29T08:58:01.183Z,27.1
2022-10-29T08:59:01.153Z,26.9
2022-10-29T09:00:01.170Z,26.7
2022-10-29T09:01:01.221Z,26.4
2022-10-29T09:02:01.436Z,26.1
2022-10-29T09:03:00.840Z,26
2022-10-29T09:04:01.136Z,25.7
2022-10-29T09:05:01.146Z,25.5
2022-10-29T09:06:01.205Z,25.7
2022-10-29T09:07:01.890Z,25.6
2022-10-29T09:08:02.431Z,25.7
2022-10-29T09:09:01.127Z,25.4
2022-10-29T09:10:01.798Z,25.3
2022-10-29T09:11:01.792Z,25.3
2022-10-29T09:12:01.871Z,25.3
2022-10-29T09:13:01.506Z,24.8
2022-10-29T09:14:02.143Z,24.9
2022-10-29T09:15:01.220Z,24.8
2022-10-29T09:16:01.139Z,24.9
2022-10-29T09:17:01.118Z,24.8
2022-10-29T09:18:01.133Z,24.8
2022-10-29T09:19:01.165Z,24.3
2022-10-29T09:20:01.142Z,24.3
2022-10-29T09:21:01.192Z,24.1
2022-10-29T09:22:01.205Z,23.9
2022-10-29T09:23:01.154Z,23.8
2022-10-29T09:24:01.879Z,23.5
2022-10-29T09:25:00.879Z,23.5
2022-10-29T09:26:00.568Z,23.6
2022-10-29T09:27:00.260Z,23.6
2022-10-29T09:28:00.033Z,23.6
2022-10-29T09:28:59.669Z,23.3
2022-10-29T09:30:01.772Z,23.5
2022-10-29T09:31:01.816Z,23.3
2022-10-29T09:32:01.532Z,23.2
2022-10-29T09:33:01.170Z,22.8
2022-10-29T09:34:01.941Z,22.9
2022-10-29T09:35:01.258Z,23.1
2022-10-29T09:36:01.201Z,22.7
2022-10-29T09:37:01.163Z,22.7
2022-10-29T09:38:01.362Z,22.6
2022-10-29T09:39:01.074Z,22.9
2022-10-29T09:40:01.067Z,22.6
2022-10-29T09:41:01.068Z,22.4
2022-10-29T09:42:01.355Z,22.2
2022-10-29T09:43:01.078Z,22.2
2022-10-29T09:44:01.097Z,22.1
2022-10-29T09:45:01.099Z,22
2022-10-29T09:46:01.104Z,21.5
2022-10-29T09:47:04.379Z,21.3
2022-10-29T09:48:01.049Z,21.1
2022-10-29T09:49:01.180Z,21.8
2022-10-29T09:50:05.455Z,21.7
2022-10-29T09:51:01.137Z,21.3
2022-10-29T09:52:01.322Z,21.1
2022-10-29T09:53:01.355Z,20.9
2022-10-29T09:54:01.540Z,19.9
2022-10-29T09:55:03.073Z,19.8
2022-10-29T09:56:01.738Z,19.9
2022-10-29T09:57:02.511Z,19.5
2022-10-29T09:58:02.517Z,19.4
2022-10-29T09:59:01.122Z,19.3
2022-10-29T10:00:01.763Z,19.5
2022-10-29T10:01:01.338Z,19.4
2022-10-29T10:02:01.590Z,19.5
2022-10-29T10:03:01.521Z,19.5
2022-10-29T10:05:01.421Z,20
2022-10-29T10:06:02.479Z,19.8
2022-10-29T10:07:01.299Z,19.8
2022-10-29T10:08:01.875Z,19.8
2022-10-29T10:09:01.358Z,19.6
2022-10-29T10:10:01.540Z,19.5
2022-10-29T10:11:01.247Z,19.4
2022-10-29T10:12:02.763Z,19.1
2022-10-29T10:13:01.893Z,19
2022-10-29T10:14:01.153Z,19.1
2022-10-29T10:15:01.231Z,19.2
2022-10-29T10:16:01.078Z,19.2
2022-10-29T10:17:05.938Z,19.1
2022-10-29T10:18:02.095Z,19.3
2022-10-29T10:19:01.045Z,19.4
2022-10-29T10:20:03.802Z,19.4
2022-10-29T10:21:03.056Z,19.4
2022-10-29T10:22:29.869Z,19.4
2022-10-29T10:23:09.513Z,19.3
2022-10-29T10:24:19.102Z,19.3
2022-10-29T10:25:01.542Z,19.3
2022-10-29T10:26:04.448Z,19
2022-10-29T10:27:13.402Z,19
2022-10-29T10:28:01.128Z,18.8
2022-10-29T10:29:01.405Z,19
2022-10-29T10:30:01.067Z,19
2022-10-29T10:31:01.802Z,19
2022-10-29T10:32:15.482Z,18.8
2022-10-29T10:33:01.249Z,18.9
2022-10-29T10:34:01.925Z,19
2022-10-29T10:35:02.135Z,18.7
2022-10-29T10:36:01.123Z,18.5
2022-10-29T10:37:01.128Z,18.3
2022-10-29T10:38:01.506Z,18
2022-10-29T10:39:01.225Z,17.8
2022-10-29T10:40:01.151Z,18
2022-10-29T10:41:01.167Z,17.9
2022-10-29T10:42:01.130Z,17.6
2022-10-29T10:43:05.312Z,17.3
2022-10-29T10:44:01.139Z,17.1
2022-10-29T10:45:01.253Z,17.1
2022-10-29T10:46:01.279Z,16.9
2022-10-29T10:47:01.210Z,16.9
2022-10-29T10:48:01.742Z,17
2022-10-29T10:49:01.051Z,17.1
2022-10-29T10:50:01.122Z,16.9
2022-10-29T10:51:01.981Z,16.9
2022-10-29T10:52:01.437Z,16.7
2022-10-29T10:53:01.344Z,16.6
2022-10-29T10:54:01.575Z,16.7
2022-10-29T10:55:02.078Z,16.5
2022-10-29T10:56:01.184Z,16.6
2022-10-29T10:57:01.253Z,16.4
2022-10-29T10:58:01.072Z,16.4
2022-10-29T10:59:01.080Z,16.6
2022-10-29T11:00:07.672Z,16.6
2022-10-29T11:01:05.227Z,16.7
2022-10-29T11:02:02.167Z,17.1
2022-10-29T11:03:01.180Z,18
2022-10-29T11:04:01.101Z,17.7
2022-10-29T11:05:05.182Z,17.6
2022-10-29T11:06:01.074Z,17.9
2022-10-29T11:07:01.090Z,17.7
2022-10-29T11:08:01.169Z,17.6
2022-10-29T11:09:02.061Z,17.4
2022-10-29T11:10:01.148Z,18.3
2022-10-29T11:11:01.417Z,17.9
2022-10-29T11:12:04.162Z,17.6
2022-10-29T11:13:01.129Z,17.6
2022-10-29T11:14:01.062Z,17.3
2022-10-29T11:15:01.917Z,17.1
2022-10-29T11:16:01.708Z,17
2022-10-29T11:17:01.168Z,16.9
2022-10-29T11:18:02.190Z,16.9
2022-10-29T11:19:01.157Z,16.9
2022-10-29T11:20:01.067Z,16.9
2022-10-29T11:21:01.151Z,16.9
2022-10-29T11:22:01.803Z,16.6
2022-10-29T11:23:00.847Z,17.3
2022-10-29T11:24:01.515Z,16.8
2022-10-29T11:25:03.015Z,16.6
2022-10-29T11:26:01.860Z,16.3
2022-10-29T11:27:01.347Z,16.6
2022-10-29T11:28:01.164Z,17
2022-10-29T11:29:02.536Z,16.7
2022-10-29T11:30:01.700Z,16.2
2022-10-29T11:31:01.755Z,16.3
2022-10-29T11:32:02.733Z,16.5
2022-10-29T11:33:01.737Z,16.5
2022-10-29T11:34:01.111Z,16.1
2022-10-29T11:35:01.496Z,16.1
2022-10-29T11:36:02.176Z,16.2
2022-10-29T11:37:01.173Z,16.1
2022-10-29T11:38:00.640Z,15.8
2022-10-29T11:39:00.300Z,15.8
2022-10-29T11:39:59.895Z,16
2022-10-29T11:40:59.603Z,16.2
2022-10-29T11:42:01.651Z,16.2
2022-10-29T11:43:05.837Z,16.3
2022-10-29T11:44:01.265Z,16.4
2022-10-29T11:45:01.167Z,16.4
2022-10-29T11:46:01.171Z,16.7
2022-10-29T11:47:01.079Z,16.9
2022-10-29T11:48:01.752Z,16.9
2022-10-29T11:49:01.981Z,17.1
2022-10-29T11:50:01.176Z,17.3
2022-10-29T11:51:01.371Z,17.3
2022-10-29T11:52:02.332Z,17.4
2022-10-29T11:53:02.036Z,17.3
2022-10-29T11:54:01.140Z,17.3
2022-10-29T11:55:01.123Z,17.4
2022-10-29T11:56:01.122Z,17.5
2022-10-29T11:57:01.133Z,17.7
2022-10-29T11:58:01.142Z,17.6
2022-10-29T11:59:01.156Z,17.7
2022-10-29T12:00:01.862Z,17.3
2022-10-29T12:01:01.864Z,17.3
2022-10-29T12:02:01.143Z,17.3
2022-10-29T12:03:00.930Z,17.3
2022-10-29T12:04:01.158Z,17.2
2022-10-29T12:05:01.476Z,17.4
2022-10-29T12:06:01.148Z,17.3
2022-10-29T12:07:01.805Z,17.3
2022-10-29T12:08:04.064Z,17.2
2022-10-29T12:09:01.781Z,17.2
2022-10-29T12:10:01.228Z,17.3
2022-10-29T12:11:02.315Z,17.1
2022-10-29T12:12:01.156Z,17.1
2022-10-29T12:13:01.205Z,16.8
2022-10-29T12:14:01.430Z,16.7
2022-10-29T12:15:01.415Z,16.9
2022-10-29T12:16:02.162Z,17
2022-10-29T12:17:02.144Z,17.1
2022-10-29T12:18:08.312Z,17
2022-10-29T12:19:01.064Z,17.2
2022-10-29T12:20:03.827Z,17.2
2022-10-29T12:21:02.081Z,17.2
2022-10-29T12:22:02.049Z,17.1
2022-10-29T12:23:14.539Z,17.3
2022-10-29T12:24:01.118Z,17.1
2022-10-29T12:25:01.050Z,17.4
2022-10-29T12:26:01.053Z,17.3
2022-10-29T12:27:01.139Z,17
2022-10-29T12:28:11.549Z,17
2022-10-29T12:29:01.152Z,16.5
2022-10-29T12:30:01.179Z,16.6
2022-10-29T12:31:02.639Z,16.3
2022-10-29T12:32:02.611Z,16.6
2022-10-29T12:33:14.676Z,16.5
2022-10-29T12:34:01.739Z,16.5
2022-10-29T12:35:01.377Z,16.8
2022-10-29T12:37:01.117Z,16.2
2022-10-29T12:38:16.798Z,16.2
2022-10-29T12:39:01.093Z,16.1
2022-10-29T12:40:01.047Z,16.3
2022-10-29T12:41:01.113Z,16.6
2022-10-29T12:42:01.135Z,16.2
2022-10-29T12:43:01.452Z,16
2022-10-29T12:44:02.376Z,15.9
2022-10-29T12:45:02.132Z,15.8
2022-10-29T12:47:03.875Z,16.1
2022-10-29T12:48:01.082Z,15.8
2022-10-29T12:49:01.092Z,15.6
2022-10-29T12:50:01.079Z,15.6
2022-10-29T12:51:01.794Z,15.3
2022-10-29T12:52:01.780Z,15.4
2022-10-29T12:53:01.506Z,15.4
2022-10-29T12:54:02.440Z,15
2022-10-29T12:55:02.086Z,14.8
2022-10-29T12:56:01.113Z,14.9
2022-10-29T12:57:01.113Z,14.7
2022-10-29T12:58:01.917Z,14.6
2022-10-29T12:59:01.115Z,14.1
2022-10-29T13:00:01.156Z,14
2022-10-29T13:01:01.202Z,14
2022-10-29T13:02:16.684Z,13.7
2022-10-29T13:03:01.392Z,13.6
2022-10-29T13:04:01.317Z,13.8
2022-10-29T13:05:02.354Z,13.9
2022-10-29T13:06:02.446Z,14
2022-10-29T13:07:01.097Z,14.1
2022-10-29T13:08:01.141Z,14.2
2022-10-29T13:09:01.089Z,14.1
2022-10-29T13:10:01.115Z,13.9
2022-10-29T13:11:01.792Z,14.1
2022-10-29T13:12:01.202Z,14.1
2022-10-29T13:13:00.838Z,14.1
2022-10-29T13:14:00.553Z,14.2
2022-10-29T13:15:00.220Z,14.1
2022-10-29T13:15:59.791Z,14.1
2022-10-29T13:17:01.430Z,14
2022-10-29T13:18:01.164Z,14
2022-10-29T13:19:01.048Z,14.2
2022-10-29T13:20:01.058Z,14
2022-10-29T13:21:01.079Z,14
2022-10-29T13:22:01.072Z,14
2022-10-29T13:23:03.859Z,14
2022-10-29T13:24:01.466Z,13.9
2022-10-29T13:25:01.082Z,13.4
2022-10-29T13:26:01.773Z,13.4
2022-10-29T13:27:01.163Z,13.8
2022-10-29T13:28:01.262Z,14
2022-10-29T13:29:01.058Z,14
2022-10-29T13:30:01.810Z,14
2022-10-29T13:31:01.773Z,14
2022-10-29T13:32:04.668Z,14.5
2022-10-29T13:33:01.487Z,14.2
2022-10-29T13:34:01.066Z,14.3
2022-10-29T13:35:01.155Z,14.7
2022-10-29T13:36:01.155Z,14.4